Addenbroke Island, British Columbia

6:56 PM PDT on August 21, 2014 (GMT -0700)
Pruth Bay | Change Station
CLOSE
Current Station
Personal Weather Station
Location: British Columbia, BRITISH COLUMBIA
Elevation: 26 ft
Nearby Weather Stations

Elev 26 ft 51.65 °N, 128.13 °W | Updated 3 minutes ago

Clear
Clear
60.7 °F
Feels Like 60.7 °F
N
3.4
Wind Variable Wind from WNW
Gusts 6.3 mph

Today
High -- | Low -- °F
--% Chance of Precip.
Yesterday
High -- | Low -- °F
Precip. -- in
6:26 AM 8:41 PM
Waning Crescent, 11% visible
Pressure 30.06 in
Visibility 9.0 miles
Clouds Clear
Dew Point 55 °F
Humidity 82%
Rainfall 0.00 in
Snow Depth Not available.
UV 2 out of 12
Pollen Not available.
Air Quality Not available.
Flu Activity Not available.
METAR CBBC 220100Z AUTO 29008KT 260V330 9SM CLR 21/12 A3006 RMK SLP180 DENSITY ALT 600FT

More Conditions Fewer Conditions

Pressure 30.06 in
Visibility 9.0 miles
Clouds Clear
Dew Point 55 °F
Humidity 82%
Rainfall 0.00 in
Snow Depth Not available.
UV 2 out of 12
Pollen Not available.
Air Quality Not available.
Flu Activity Not available.
METAR CBBC 220100Z AUTO 29008KT 260V330 9SM CLR 21/12 A3006 RMK SLP180 DENSITY ALT 600FT

More Conditions Fewer Conditions

10-Day Weather Forecast

Almanac

Astronomy

Aug. 21, 2014 Rise Set
Actual Time 6:26 AM PDT 8:41 PM PDT
Civil Twilight 5:49 AM PDT 9:17 PM PDT
Nautical Twilight 5:03 AM PDT 10:03 PM PDT
Astronomical Twilight 4:10 AM PDT 10:56 PM PDT
Moon 2:50 AM PDT (8/21) 6:24 PM PDT (8/21)
Length of Visible Light 15h 27m
Length of Day
14h 14m
Tomorrow will be 3m 42s shorter.
Waning Crescent, 11% of the Moon is Illuminated
Today
Waning Crescent
Aug 25
New
Sep 2
First Quarter
Sep 8
Full
Sep 15
Last Quarter

Today's Extremes

Country Highs Country Lows

Community

WunderPhotos

Upload Photos

1,746,105 photos uploaded!

WunderBlogs® & News

Nearby

Snow Depth

Not available.

Earthquake Activity

City Distance Mag. Time & Date
No recent earthquake activity has been reported nearby.
Minimum magnitude displayed is 2.5.

Coastal Water Temperatures

Place Temperature
No Stations Reporting

Nearby Weather Stations